DAL1638 KPBI-KJFK
Flight info
| Callsign | DAL1638 |
|---|---|
| Flight time | 2h 15m |
| Altitude | 34000 |
| Route | TBIRD6 VIYAP Q87 JROSS/N0462F350 JOHAR Q109 DFENC SAWED Q108 SIE CAMRN4 |
| Aircraft | B738/M-SDE2E3FGHIRWXY/LB1 |
Departure
| Time | 2026-04-30 20:21 |
|---|---|
| Airport | Palm Beach International Airport (KPBI) |
Arrival
| Time | 2026-04-30 22:36 |
|---|---|
| Airport | John F. Kennedy International Airport (KJFK) |
| Time | Latitude | Longitude | Altitude | Speed | Heading |
|---|---|---|---|---|---|
| 2026-04-30 19:57 | 26.68644 | -80.08896 | 27 ft | 0 kts | 273° |
| 2026-04-30 20:11 | 26.68642 | -80.08845 | 27 ft | 4 kts | 268° |
| 2026-04-30 20:11 | 26.68649 | -80.08823 | 27 ft | 4 kts | 203° |
| 2026-04-30 20:11 | 26.68673 | -80.08819 | 27 ft | 4 kts | 180° |
| 2026-04-30 20:12 | 26.68689 | -80.08819 | 27 ft | 1 kts | 179° |
| 2026-04-30 20:15 | 26.68688 | -80.08819 | 27 ft | 1 kts | 179° |
| 2026-04-30 20:15 | 26.68673 | -80.08819 | 27 ft | 4 kts | 180° |
| 2026-04-30 20:15 | 26.68629 | -80.08801 | 27 ft | 10 kts | 151° |
| 2026-04-30 20:16 | 26.68553 | -80.08770 | 32 ft | 14 kts | 185° |
| 2026-04-30 20:16 | 26.68453 | -80.08766 | 26 ft | 15 kts | 151° |
| 2026-04-30 20:16 | 26.68430 | -80.08661 | 27 ft | 14 kts | 107° |
| 2026-04-30 20:16 | 26.68349 | -80.08619 | 29 ft | 13 kts | 147° |
| 2026-04-30 20:17 | 26.68331 | -80.08522 | 30 ft | 13 kts | 93° |
| 2026-04-30 20:17 | 26.68326 | -80.08410 | 30 ft | 16 kts | 93° |
| 2026-04-30 20:17 | 26.68320 | -80.08287 | 33 ft | 16 kts | 93° |
| 2026-04-30 20:17 | 26.68316 | -80.08169 | 35 ft | 15 kts | 92° |
| 2026-04-30 20:18 | 26.68309 | -80.08057 | 35 ft | 14 kts | 108° |
| 2026-04-30 20:18 | 26.68294 | -80.08038 | 33 ft | 0 kts | 153° |
| 2026-04-30 20:18 | 26.68291 | -80.08036 | 34 ft | 0 kts | 153° |
| 2026-04-30 20:19 | 26.68288 | -80.08035 | 34 ft | 2 kts | 162° |
| 2026-04-30 20:19 | 26.68274 | -80.08035 | 34 ft | 4 kts | 183° |
| 2026-04-30 20:19 | 26.68201 | -80.08058 | 33 ft | 8 kts | 249° |
| 2026-04-30 20:19 | 26.68203 | -80.08129 | 33 ft | 11 kts | 272° |
| 2026-04-30 20:20 | 26.68213 | -80.08350 | 32 ft | 59 kts | 272° |
| 2026-04-30 20:20 | 26.68243 | -80.09067 | 25 ft | 123 kts | 272° |
| 2026-04-30 20:20 | 26.68297 | -80.10217 | 79 ft | 169 kts | 272° |
| 2026-04-30 20:20 | 26.68349 | -80.11612 | 564 ft | 187 kts | 269° |
| 2026-04-30 20:21 | 26.68368 | -80.13115 | 1163 ft | 198 kts | 265° |
| 2026-04-30 20:21 | 26.68428 | -80.14611 | 2080 ft | 189 kts | 269° |
| 2026-04-30 20:21 | 26.68495 | -80.16150 | 2477 ft | 209 kts | 270° |
| 2026-04-30 20:21 | 26.68569 | -80.17848 | 2710 ft | 227 kts | 272° |
| 2026-04-30 20:22 | 26.68657 | -80.19647 | 3158 ft | 234 kts | 275° |
| 2026-04-30 20:22 | 26.69179 | -80.21372 | 3658 ft | 244 kts | 298° |
| 2026-04-30 20:22 | 26.70123 | -80.23049 | 4016 ft | 260 kts | 300° |
| 2026-04-30 20:22 | 26.71095 | -80.24757 | 4791 ft | 261 kts | 300° |
| 2026-04-30 20:23 | 26.72130 | -80.26450 | 5431 ft | 270 kts | 312° |
| 2026-04-30 20:23 | 26.73691 | -80.27632 | 6156 ft | 275 kts | 332° |
| 2026-04-30 20:23 | 26.75445 | -80.28530 | 6861 ft | 277 kts | 334° |
| 2026-04-30 20:23 | 26.77202 | -80.29394 | 7656 ft | 275 kts | 334° |
| 2026-04-30 20:24 | 26.78963 | -80.30260 | 8329 ft | 279 kts | 334° |
| 2026-04-30 20:24 | 26.80747 | -80.31144 | 9025 ft | 282 kts | 334° |
| 2026-04-30 20:24 | 26.81933 | -80.31736 | 9550 ft | 282 kts | 333° |
| 2026-04-30 20:24 | 26.83724 | -80.32635 | 10238 ft | 284 kts | 333° |
| 2026-04-30 20:25 | 26.87569 | -80.34577 | 10626 ft | 323 kts | 333° |
| 2026-04-30 20:25 | 26.89678 | -80.35644 | 10772 ft | 342 kts | 333° |
| 2026-04-30 20:26 | 26.94272 | -80.37825 | 11182 ft | 371 kts | 336° |
| 2026-04-30 20:26 | 26.99143 | -80.39875 | 12255 ft | 375 kts | 336° |
| 2026-04-30 20:26 | 27.01588 | -80.40906 | 12848 ft | 376 kts | 336° |
| 2026-04-30 20:27 | 27.06513 | -80.43011 | 13945 ft | 381 kts | 335° |
| 2026-04-30 20:27 | 27.11478 | -80.45150 | 15009 ft | 384 kts | 335° |
| 2026-04-30 20:28 | 27.16518 | -80.47262 | 16077 ft | 390 kts | 339° |
| 2026-04-30 20:28 | 27.21861 | -80.48604 | 17124 ft | 397 kts | 345° |
| 2026-04-30 20:29 | 27.27290 | -80.49710 | 18063 ft | 402 kts | 345° |
| 2026-04-30 20:30 | 27.35598 | -80.51493 | 19183 ft | 409 kts | 345° |
| 2026-04-30 20:30 | 27.44054 | -80.53401 | 20186 ft | 417 kts | 345° |
| 2026-04-30 20:31 | 27.52643 | -80.55361 | 21183 ft | 423 kts | 345° |
| 2026-04-30 20:32 | 27.61378 | -80.57358 | 22037 ft | 430 kts | 345° |
| 2026-04-30 20:32 | 27.67276 | -80.58707 | 22582 ft | 435 kts | 345° |
| 2026-04-30 20:33 | 27.70246 | -80.59387 | 22835 ft | 437 kts | 345° |
| 2026-04-30 20:33 | 27.76226 | -80.60758 | 23379 ft | 440 kts | 345° |
| 2026-04-30 20:33 | 27.79221 | -80.61444 | 23682 ft | 439 kts | 345° |
| 2026-04-30 20:34 | 27.85237 | -80.62825 | 24050 ft | 443 kts | 345° |
| 2026-04-30 20:34 | 27.91303 | -80.64220 | 24435 ft | 446 kts | 345° |
| 2026-04-30 20:35 | 27.94351 | -80.64921 | 24628 ft | 448 kts | 345° |
| 2026-04-30 20:35 | 27.97413 | -80.65626 | 24817 ft | 450 kts | 345° |
| 2026-04-30 20:35 | 28.03568 | -80.67044 | 25195 ft | 453 kts | 345° |
| 2026-04-30 20:36 | 28.06660 | -80.67757 | 25411 ft | 454 kts | 344° |
| 2026-04-30 20:36 | 28.09750 | -80.68470 | 25645 ft | 454 kts | 344° |
| 2026-04-30 20:36 | 28.15957 | -80.69903 | 25991 ft | 457 kts | 344° |
| 2026-04-30 20:37 | 28.19080 | -80.70625 | 26163 ft | 459 kts | 344° |
| 2026-04-30 20:37 | 28.22215 | -80.71350 | 26336 ft | 460 kts | 344° |
| 2026-04-30 20:37 | 28.25358 | -80.72077 | 26491 ft | 461 kts | 344° |
| 2026-04-30 20:37 | 28.28505 | -80.72806 | 26679 ft | 463 kts | 344° |
| 2026-04-30 20:38 | 28.31624 | -80.73528 | 26836 ft | 464 kts | 344° |
| 2026-04-30 20:38 | 28.34795 | -80.74263 | 26990 ft | 466 kts | 344° |
| 2026-04-30 20:38 | 28.37974 | -80.75001 | 27179 ft | 467 kts | 343° |
| 2026-04-30 20:39 | 28.44328 | -80.76474 | 27713 ft | 465 kts | 343° |
| 2026-04-30 20:39 | 28.47495 | -80.77209 | 27964 ft | 465 kts | 343° |
| 2026-04-30 20:39 | 28.50662 | -80.77945 | 28199 ft | 465 kts | 343° |
| 2026-04-30 20:40 | 28.56998 | -80.79420 | 28725 ft | 464 kts | 343° |
| 2026-04-30 20:40 | 28.60162 | -80.80157 | 28993 ft | 464 kts | 343° |
| 2026-04-30 20:40 | 28.63324 | -80.80894 | 29200 ft | 464 kts | 343° |
| 2026-04-30 20:41 | 28.69629 | -80.82364 | 29933 ft | 460 kts | 343° |
| 2026-04-30 20:41 | 28.72763 | -80.83095 | 30207 ft | 459 kts | 343° |
| 2026-04-30 20:41 | 28.75887 | -80.83825 | 30492 ft | 458 kts | 343° |
| 2026-04-30 20:41 | 28.79004 | -80.84553 | 30833 ft | 455 kts | 343° |
| 2026-04-30 20:42 | 28.82094 | -80.85275 | 31195 ft | 452 kts | 343° |
| 2026-04-30 20:42 | 28.85168 | -80.85994 | 31553 ft | 450 kts | 343° |
| 2026-04-30 20:42 | 28.91271 | -80.87424 | 32208 ft | 446 kts | 343° |
| 2026-04-30 20:43 | 28.94301 | -80.88135 | 32582 ft | 443 kts | 342° |
| 2026-04-30 20:43 | 28.97298 | -80.88837 | 33084 ft | 437 kts | 342° |
| 2026-04-30 20:43 | 29.00264 | -80.89531 | 33515 ft | 433 kts | 342° |
| 2026-04-30 20:44 | 29.06125 | -80.90912 | 33881 ft | 435 kts | 342° |
| 2026-04-30 20:44 | 29.09106 | -80.91617 | 33870 ft | 438 kts | 342° |
| 2026-04-30 20:45 | 29.20942 | -80.94402 | 33882 ft | 430 kts | 342° |
| 2026-04-30 20:45 | 29.26797 | -80.95784 | 33875 ft | 429 kts | 342° |
| 2026-04-30 20:46 | 29.38472 | -80.98546 | 33883 ft | 428 kts | 342° |
| 2026-04-30 20:47 | 29.47225 | -81.00620 | 33895 ft | 428 kts | 342° |
| 2026-04-30 20:48 | 29.55981 | -81.02698 | 33895 ft | 429 kts | 341° |
| 2026-04-30 20:48 | 29.61826 | -81.04087 | 33885 ft | 429 kts | 341° |
| 2026-04-30 20:49 | 29.67670 | -81.05477 | 33883 ft | 428 kts | 341° |
| 2026-04-30 20:50 | 29.76426 | -81.07563 | 33894 ft | 428 kts | 341° |
| 2026-04-30 20:50 | 29.82261 | -81.08956 | 33917 ft | 428 kts | 341° |
| 2026-04-30 20:51 | 29.88086 | -81.10348 | 33906 ft | 427 kts | 341° |
| 2026-04-30 20:51 | 29.96812 | -81.12435 | 33893 ft | 426 kts | 341° |
| 2026-04-30 20:52 | 30.02612 | -81.13824 | 33892 ft | 425 kts | 340° |
| 2026-04-30 20:53 | 30.11295 | -81.15908 | 33918 ft | 424 kts | 340° |
| 2026-04-30 20:53 | 30.17079 | -81.17299 | 33911 ft | 425 kts | 340° |
| 2026-04-30 20:54 | 30.25761 | -81.19391 | 33866 ft | 427 kts | 340° |
| 2026-04-30 20:55 | 30.34462 | -81.21485 | 33875 ft | 425 kts | 340° |
| 2026-04-30 20:55 | 30.40252 | -81.22884 | 33877 ft | 425 kts | 340° |
| 2026-04-30 20:56 | 30.48921 | -81.24981 | 33885 ft | 424 kts | 340° |
| 2026-04-30 20:57 | 30.57568 | -81.27076 | 33858 ft | 422 kts | 340° |
| 2026-04-30 20:57 | 30.63310 | -81.28469 | 33854 ft | 421 kts | 340° |
| 2026-04-30 20:58 | 30.71965 | -81.30577 | 33873 ft | 427 kts | 339° |
| 2026-04-30 20:58 | 30.77786 | -81.31994 | 33868 ft | 427 kts | 339° |
| 2026-04-30 20:59 | 30.86478 | -81.34109 | 33899 ft | 424 kts | 339° |
| 2026-04-30 21:00 | 30.97986 | -81.36920 | 33882 ft | 421 kts | 339° |
| 2026-04-30 21:01 | 31.06533 | -81.39014 | 33831 ft | 419 kts | 339° |
| 2026-04-30 21:02 | 31.15075 | -81.41110 | 33832 ft | 418 kts | 339° |
| 2026-04-30 21:02 | 31.20769 | -81.42490 | 33844 ft | 420 kts | 342° |
| 2026-04-30 21:02 | 31.23738 | -81.42684 | 33896 ft | 435 kts | 353° |
| 2026-04-30 21:03 | 31.26786 | -81.42262 | 33860 ft | 448 kts | 0° |
| 2026-04-30 21:03 | 31.29835 | -81.41248 | 33840 ft | 465 kts | 11° |
| 2026-04-30 21:03 | 31.32810 | -81.39703 | 33854 ft | 470 kts | 14° |
| 2026-04-30 21:04 | 31.38712 | -81.36377 | 33851 ft | 471 kts | 15° |
| 2026-04-30 21:04 | 31.47579 | -81.31448 | 33857 ft | 470 kts | 14° |
| 2026-04-30 21:05 | 31.53506 | -81.28221 | 33864 ft | 470 kts | 13° |
| 2026-04-30 21:05 | 31.59442 | -81.24988 | 33866 ft | 471 kts | 14° |
| 2026-04-30 21:06 | 31.65379 | -81.21745 | 33858 ft | 471 kts | 14° |
| 2026-04-30 21:06 | 31.71279 | -81.18518 | 33847 ft | 471 kts | 14° |
| 2026-04-30 21:07 | 31.77219 | -81.15267 | 33871 ft | 471 kts | 14° |
| 2026-04-30 21:07 | 31.83182 | -81.11999 | 33822 ft | 474 kts | 14° |
| 2026-04-30 21:08 | 31.89150 | -81.08719 | 33828 ft | 473 kts | 13° |
| 2026-04-30 21:08 | 31.95139 | -81.05425 | 33821 ft | 475 kts | 14° |
| 2026-04-30 21:09 | 32.01122 | -81.02126 | 33823 ft | 474 kts | 14° |
| 2026-04-30 21:09 | 32.07084 | -80.98800 | 33855 ft | 474 kts | 14° |
| 2026-04-30 21:10 | 32.13027 | -80.95466 | 33839 ft | 472 kts | 14° |
| 2026-04-30 21:10 | 32.18945 | -80.92145 | 33877 ft | 471 kts | 14° |
| 2026-04-30 21:11 | 32.24851 | -80.88838 | 33857 ft | 469 kts | 14° |
| 2026-04-30 21:11 | 32.30729 | -80.85528 | 33928 ft | 467 kts | 14° |
| 2026-04-30 21:12 | 32.36586 | -80.82228 | 33870 ft | 466 kts | 14° |
| 2026-04-30 21:12 | 32.42416 | -80.78940 | 33868 ft | 463 kts | 14° |
| 2026-04-30 21:13 | 32.48212 | -80.75667 | 33878 ft | 461 kts | 13° |
| 2026-04-30 21:13 | 32.53025 | -80.72949 | 33866 ft | 461 kts | 14° |
| 2026-04-30 21:14 | 32.58810 | -80.69675 | 33882 ft | 461 kts | 13° |
| 2026-04-30 21:14 | 32.64586 | -80.66399 | 33875 ft | 459 kts | 13° |
| 2026-04-30 21:15 | 32.70288 | -80.62967 | 33873 ft | 468 kts | 21° |
| 2026-04-30 21:15 | 32.72935 | -80.60631 | 33875 ft | 482 kts | 31° |
| 2026-04-30 21:15 | 32.75351 | -80.57815 | 33899 ft | 489 kts | 34° |
| 2026-04-30 21:16 | 32.80050 | -80.51940 | 33930 ft | 490 kts | 35° |
| 2026-04-30 21:16 | 32.84746 | -80.46040 | 33888 ft | 491 kts | 35° |
| 2026-04-30 21:17 | 32.89484 | -80.40170 | 33883 ft | 493 kts | 34° |
| 2026-04-30 21:17 | 32.94258 | -80.34295 | 33884 ft | 495 kts | 34° |
| 2026-04-30 21:18 | 32.99053 | -80.28394 | 33885 ft | 497 kts | 34° |
| 2026-04-30 21:18 | 33.03868 | -80.22454 | 33883 ft | 499 kts | 34° |
| 2026-04-30 21:19 | 33.08660 | -80.16527 | 33862 ft | 501 kts | 34° |
| 2026-04-30 21:19 | 33.13491 | -80.10540 | 33881 ft | 501 kts | 35° |
| 2026-04-30 21:20 | 33.18322 | -80.04543 | 33879 ft | 501 kts | 35° |
| 2026-04-30 21:20 | 33.23145 | -79.98546 | 33873 ft | 500 kts | 35° |
| 2026-04-30 21:21 | 33.27956 | -79.92554 | 33906 ft | 499 kts | 35° |
| 2026-04-30 21:22 | 33.35164 | -79.83562 | 33882 ft | 499 kts | 35° |
| 2026-04-30 21:23 | 33.44774 | -79.71539 | 33892 ft | 500 kts | 35° |
| 2026-04-30 21:23 | 33.51987 | -79.62485 | 33939 ft | 501 kts | 34° |
| 2026-04-30 21:24 | 33.56808 | -79.56422 | 33902 ft | 503 kts | 34° |
| 2026-04-30 21:24 | 33.61632 | -79.50343 | 33899 ft | 504 kts | 34° |
| 2026-04-30 21:25 | 33.68885 | -79.41183 | 33884 ft | 505 kts | 35° |
| 2026-04-30 21:26 | 33.76138 | -79.31998 | 33947 ft | 505 kts | 34° |
| 2026-04-30 21:27 | 33.83378 | -79.22809 | 33907 ft | 507 kts | 34° |
| 2026-04-30 21:27 | 33.88227 | -79.16638 | 33902 ft | 508 kts | 34° |
| 2026-04-30 21:28 | 33.95503 | -79.07359 | 33895 ft | 508 kts | 35° |
| 2026-04-30 21:29 | 34.02775 | -78.98062 | 33898 ft | 509 kts | 35° |
| 2026-04-30 21:30 | 34.14912 | -78.82487 | 33892 ft | 510 kts | 35° |
| 2026-04-30 21:31 | 34.27060 | -78.66829 | 33904 ft | 512 kts | 35° |
| 2026-04-30 21:32 | 34.34483 | -78.57588 | 33889 ft | 500 kts | 27° |
| 2026-04-30 21:32 | 34.39934 | -78.52452 | 33892 ft | 495 kts | 24° |
| 2026-04-30 21:33 | 34.48187 | -78.44863 | 33888 ft | 499 kts | 25° |
| 2026-04-30 21:34 | 34.53675 | -78.39687 | 33894 ft | 501 kts | 25° |
| 2026-04-30 21:34 | 34.61916 | -78.31843 | 33889 ft | 503 kts | 25° |
| 2026-04-30 21:35 | 34.67420 | -78.26598 | 33895 ft | 503 kts | 26° |
| 2026-04-30 21:35 | 34.72943 | -78.21333 | 33900 ft | 505 kts | 25° |
| 2026-04-30 21:36 | 34.78475 | -78.16046 | 33896 ft | 506 kts | 26° |
| 2026-04-30 21:37 | 34.89559 | -78.05443 | 33893 ft | 507 kts | 25° |
| 2026-04-30 21:37 | 34.95114 | -78.00141 | 33908 ft | 508 kts | 25° |
| 2026-04-30 21:38 | 35.00677 | -77.94821 | 33888 ft | 508 kts | 25° |
| 2026-04-30 21:38 | 35.06238 | -77.89487 | 33900 ft | 508 kts | 25° |
| 2026-04-30 21:39 | 35.11747 | -77.84193 | 33898 ft | 507 kts | 25° |
| 2026-04-30 21:39 | 35.17294 | -77.78855 | 33911 ft | 508 kts | 25° |
| 2026-04-30 21:40 | 35.22842 | -77.73506 | 33907 ft | 508 kts | 25° |
| 2026-04-30 21:40 | 35.28388 | -77.68148 | 33905 ft | 508 kts | 25° |
| 2026-04-30 21:41 | 35.33929 | -77.62786 | 33905 ft | 507 kts | 25° |
| 2026-04-30 21:41 | 35.39463 | -77.57422 | 33902 ft | 507 kts | 26° |
| 2026-04-30 21:42 | 35.44990 | -77.52054 | 33901 ft | 507 kts | 26° |
| 2026-04-30 21:42 | 35.50512 | -77.46682 | 33884 ft | 507 kts | 26° |
| 2026-04-30 21:43 | 35.56033 | -77.41302 | 33870 ft | 507 kts | 26° |
| 2026-04-30 21:43 | 35.61556 | -77.35910 | 33906 ft | 508 kts | 26° |
| 2026-04-30 21:44 | 35.67094 | -77.30494 | 33879 ft | 509 kts | 26° |
| 2026-04-30 21:44 | 35.72635 | -77.25062 | 33875 ft | 509 kts | 26° |
| 2026-04-30 21:45 | 35.78172 | -77.19626 | 33883 ft | 509 kts | 27° |
| 2026-04-30 21:45 | 35.83710 | -77.14177 | 33902 ft | 510 kts | 27° |
| 2026-04-30 21:46 | 35.89252 | -77.08715 | 33893 ft | 510 kts | 27° |
| 2026-04-30 21:46 | 35.94923 | -77.03616 | 33893 ft | 496 kts | 19° |
| 2026-04-30 21:47 | 36.00845 | -76.99346 | 33882 ft | 491 kts | 17° |
| 2026-04-30 21:47 | 36.06784 | -76.95172 | 33917 ft | 491 kts | 17° |
| 2026-04-30 21:48 | 36.12704 | -76.90920 | 33875 ft | 492 kts | 18° |
| 2026-04-30 21:48 | 36.18601 | -76.86613 | 33876 ft | 492 kts | 18° |
| 2026-04-30 21:49 | 36.24446 | -76.82319 | 33874 ft | 491 kts | 18° |
| 2026-04-30 21:49 | 36.30327 | -76.77997 | 33877 ft | 492 kts | 18° |
| 2026-04-30 21:50 | 36.36212 | -76.73667 | 33866 ft | 492 kts | 18° |
| 2026-04-30 21:50 | 36.42094 | -76.69332 | 33859 ft | 491 kts | 18° |
| 2026-04-30 21:51 | 36.47972 | -76.64992 | 33860 ft | 491 kts | 18° |
| 2026-04-30 21:51 | 36.53857 | -76.60641 | 33855 ft | 493 kts | 19° |
| 2026-04-30 21:52 | 36.59755 | -76.56271 | 33884 ft | 493 kts | 19° |
| 2026-04-30 21:52 | 36.65655 | -76.51890 | 33879 ft | 494 kts | 19° |
| 2026-04-30 21:53 | 36.71552 | -76.47505 | 33922 ft | 494 kts | 20° |
| 2026-04-30 21:53 | 36.77471 | -76.43099 | 33887 ft | 496 kts | 20° |
| 2026-04-30 21:54 | 36.83397 | -76.38674 | 33882 ft | 496 kts | 20° |
| 2026-04-30 21:54 | 36.89325 | -76.34242 | 33885 ft | 497 kts | 20° |
| 2026-04-30 21:55 | 36.95256 | -76.29799 | 33914 ft | 498 kts | 20° |
| 2026-04-30 21:55 | 37.01200 | -76.25339 | 33894 ft | 499 kts | 21° |
| 2026-04-30 21:56 | 37.07157 | -76.20860 | 33854 ft | 499 kts | 21° |
| 2026-04-30 21:56 | 37.13101 | -76.16380 | 33863 ft | 498 kts | 21° |
| 2026-04-30 21:57 | 37.19036 | -76.11901 | 33862 ft | 498 kts | 22° |
| 2026-04-30 21:57 | 37.24966 | -76.07417 | 33860 ft | 497 kts | 22° |
| 2026-04-30 21:58 | 37.30882 | -76.02937 | 33866 ft | 496 kts | 22° |
| 2026-04-30 21:58 | 37.36793 | -75.98452 | 33916 ft | 496 kts | 23° |
| 2026-04-30 21:59 | 37.41702 | -75.94720 | 33872 ft | 496 kts | 23° |
| 2026-04-30 22:00 | 37.50558 | -75.87971 | 33870 ft | 495 kts | 23° |
| 2026-04-30 22:00 | 37.59410 | -75.81271 | 33870 ft | 494 kts | 23° |
| 2026-04-30 22:01 | 37.65317 | -75.76848 | 33878 ft | 494 kts | 23° |
| 2026-04-30 22:01 | 37.71233 | -75.72401 | 33876 ft | 495 kts | 23° |
| 2026-04-30 22:02 | 37.77160 | -75.67928 | 33870 ft | 497 kts | 23° |
| 2026-04-30 22:02 | 37.83113 | -75.63427 | 33874 ft | 499 kts | 24° |
| 2026-04-30 22:03 | 37.88974 | -75.58627 | 33880 ft | 504 kts | 28° |
| 2026-04-30 22:03 | 37.94698 | -75.53557 | 33881 ft | 506 kts | 28° |
| 2026-04-30 22:04 | 38.00482 | -75.48485 | 33883 ft | 506 kts | 28° |
| 2026-04-30 22:05 | 38.09224 | -75.41015 | 33837 ft | 503 kts | 27° |
| 2026-04-30 22:05 | 38.15132 | -75.36257 | 33856 ft | 503 kts | 27° |
| 2026-04-30 22:06 | 38.21019 | -75.31460 | 33894 ft | 502 kts | 27° |
| 2026-04-30 22:06 | 38.27240 | -75.27740 | 33881 ft | 488 kts | 10° |
| 2026-04-30 22:06 | 38.30517 | -75.26800 | 33881 ft | 479 kts | 2° |
| 2026-04-30 22:07 | 38.37107 | -75.25567 | 33874 ft | 479 kts | 1° |
| 2026-04-30 22:07 | 38.43693 | -75.24262 | 33899 ft | 480 kts | 2° |
| 2026-04-30 22:08 | 38.50287 | -75.22881 | 33873 ft | 480 kts | 3° |
| 2026-04-30 22:08 | 38.56881 | -75.21470 | 33850 ft | 480 kts | 3° |
| 2026-04-30 22:09 | 38.63472 | -75.20060 | 33870 ft | 480 kts | 3° |
| 2026-04-30 22:09 | 38.69994 | -75.17944 | 33863 ft | 491 kts | 18° |
| 2026-04-30 22:10 | 38.75914 | -75.13411 | 33866 ft | 502 kts | 33° |
| 2026-04-30 22:10 | 38.81423 | -75.07877 | 33847 ft | 503 kts | 34° |
| 2026-04-30 22:11 | 38.89706 | -74.99600 | 33854 ft | 504 kts | 34° |
| 2026-04-30 22:12 | 38.95272 | -74.94132 | 33849 ft | 504 kts | 34° |
| 2026-04-30 22:12 | 39.00844 | -74.88652 | 33844 ft | 504 kts | 34° |
| 2026-04-30 22:13 | 39.06412 | -74.83156 | 33789 ft | 506 kts | 34° |
| 2026-04-30 22:13 | 39.09206 | -74.80395 | 33617 ft | 506 kts | 34° |
| 2026-04-30 22:13 | 39.11967 | -74.77593 | 33414 ft | 505 kts | 36° |
| 2026-04-30 22:13 | 39.14669 | -74.74699 | 33201 ft | 505 kts | 37° |
| 2026-04-30 22:14 | 39.17348 | -74.71759 | 32995 ft | 507 kts | 38° |
| 2026-04-30 22:14 | 39.19994 | -74.68842 | 32523 ft | 507 kts | 38° |
| 2026-04-30 22:14 | 39.22679 | -74.65895 | 31797 ft | 507 kts | 38° |
| 2026-04-30 22:14 | 39.25369 | -74.62959 | 31094 ft | 507 kts | 38° |
| 2026-04-30 22:15 | 39.28076 | -74.60019 | 30320 ft | 508 kts | 37° |
| 2026-04-30 22:15 | 39.30791 | -74.57073 | 29434 ft | 511 kts | 37° |
| 2026-04-30 22:15 | 39.33511 | -74.54120 | 28583 ft | 510 kts | 37° |
| 2026-04-30 22:15 | 39.36206 | -74.51188 | 28018 ft | 503 kts | 37° |
| 2026-04-30 22:16 | 39.38870 | -74.48286 | 27412 ft | 499 kts | 37° |
| 2026-04-30 22:16 | 39.41510 | -74.45408 | 26818 ft | 494 kts | 37° |
| 2026-04-30 22:17 | 39.49289 | -74.36913 | 25085 ft | 482 kts | 37° |
| 2026-04-30 22:17 | 39.51838 | -74.34124 | 24470 ft | 479 kts | 37° |
| 2026-04-30 22:17 | 39.56899 | -74.28580 | 23302 ft | 474 kts | 37° |
| 2026-04-30 22:18 | 39.59404 | -74.25831 | 22637 ft | 471 kts | 37° |
| 2026-04-30 22:18 | 39.64359 | -74.20386 | 21464 ft | 462 kts | 37° |
| 2026-04-30 22:19 | 39.69224 | -74.15029 | 20353 ft | 454 kts | 37° |
| 2026-04-30 22:19 | 39.71618 | -74.12389 | 19816 ft | 450 kts | 36° |
| 2026-04-30 22:19 | 39.76352 | -74.07162 | 18708 ft | 444 kts | 36° |
| 2026-04-30 22:20 | 39.78697 | -74.04570 | 18141 ft | 441 kts | 36° |
| 2026-04-30 22:20 | 39.83156 | -73.99622 | 17830 ft | 401 kts | 37° |
| 2026-04-30 22:20 | 39.85322 | -73.97501 | 17690 ft | 379 kts | 26° |
| 2026-04-30 22:21 | 39.87576 | -73.95898 | 17577 ft | 361 kts | 22° |
| 2026-04-30 22:21 | 39.89780 | -73.94425 | 17214 ft | 353 kts | 21° |
| 2026-04-30 22:21 | 39.91958 | -73.92964 | 16691 ft | 352 kts | 22° |
| 2026-04-30 22:21 | 39.94124 | -73.91481 | 16189 ft | 351 kts | 22° |
| 2026-04-30 22:22 | 39.96267 | -73.89982 | 15727 ft | 348 kts | 23° |
| 2026-04-30 22:22 | 39.98361 | -73.88501 | 15286 ft | 345 kts | 23° |
| 2026-04-30 22:22 | 40.00461 | -73.87011 | 14870 ft | 342 kts | 24° |
| 2026-04-30 22:22 | 40.02464 | -73.85333 | 14447 ft | 342 kts | 31° |
| 2026-04-30 22:23 | 40.04424 | -73.83618 | 14013 ft | 338 kts | 28° |
| 2026-04-30 22:23 | 40.06398 | -73.81981 | 13582 ft | 334 kts | 28° |
| 2026-04-30 22:23 | 40.08353 | -73.80374 | 13076 ft | 330 kts | 27° |
| 2026-04-30 22:23 | 40.10287 | -73.78791 | 12593 ft | 326 kts | 27° |
| 2026-04-30 22:24 | 40.12202 | -73.77230 | 12169 ft | 324 kts | 27° |
| 2026-04-30 22:24 | 40.14091 | -73.75694 | 11788 ft | 316 kts | 27° |
| 2026-04-30 22:24 | 40.15950 | -73.74183 | 11319 ft | 313 kts | 27° |
| 2026-04-30 22:24 | 40.17791 | -73.72692 | 10846 ft | 310 kts | 27° |
| 2026-04-30 22:25 | 40.19612 | -73.71223 | 10420 ft | 305 kts | 28° |
| 2026-04-30 22:25 | 40.21410 | -73.69788 | 9991 ft | 301 kts | 27° |
| 2026-04-30 22:25 | 40.23189 | -73.68378 | 9534 ft | 297 kts | 27° |
| 2026-04-30 22:25 | 40.24952 | -73.66989 | 9017 ft | 295 kts | 27° |
| 2026-04-30 22:26 | 40.28445 | -73.64240 | 7999 ft | 291 kts | 27° |
| 2026-04-30 22:26 | 40.30178 | -73.62868 | 7521 ft | 289 kts | 27° |
| 2026-04-30 22:26 | 40.31887 | -73.61512 | 7071 ft | 286 kts | 27° |
| 2026-04-30 22:27 | 40.33582 | -73.60166 | 6617 ft | 283 kts | 27° |
| 2026-04-30 22:27 | 40.35260 | -73.58835 | 6167 ft | 281 kts | 27° |
| 2026-04-30 22:27 | 40.38551 | -73.56232 | 5589 ft | 267 kts | 27° |
| 2026-04-30 22:28 | 40.41766 | -73.53718 | 5591 ft | 269 kts | 27° |
| 2026-04-30 22:28 | 40.43361 | -73.52475 | 5561 ft | 263 kts | 27° |
| 2026-04-30 22:29 | 40.47713 | -73.49047 | 5055 ft | 231 kts | 27° |
| 2026-04-30 22:29 | 40.49085 | -73.47963 | 4753 ft | 229 kts | 26° |
| 2026-04-30 22:30 | 40.53768 | -73.50587 | 3646 ft | 203 kts | 288° |
| 2026-04-30 22:31 | 40.55387 | -73.55592 | 3087 ft | 200 kts | 296° |
| 2026-04-30 22:32 | 40.57266 | -73.60275 | 2787 ft | 185 kts | 302° |
| 2026-04-30 22:32 | 40.58570 | -73.63110 | 2297 ft | 174 kts | 301° |
| 2026-04-30 22:33 | 40.60226 | -73.66770 | 1700 ft | 149 kts | 300° |
| 2026-04-30 22:33 | 40.61289 | -73.69120 | 1315 ft | 149 kts | 301° |
| 2026-04-30 22:34 | 40.62869 | -73.72607 | 725 ft | 152 kts | 299° |
| 2026-04-30 22:35 | 40.63944 | -73.74970 | 262 ft | 148 kts | 294° |
| 2026-04-30 22:36 | 40.65367 | -73.78118 | 20 ft | 31 kts | 301° |
| 2026-04-30 22:36 | 40.65422 | -73.78317 | 20 ft | 16 kts | 255° |
| 2026-04-30 22:37 | 40.65269 | -73.78392 | 19 ft | 8 kts | 119° |
| 2026-04-30 22:37 | 40.65241 | -73.78325 | 19 ft | 8 kts | 119° |
| 2026-04-30 22:37 | 40.65175 | -73.78180 | 19 ft | 11 kts | 121° |
| 2026-04-30 22:38 | 40.65094 | -73.78006 | 19 ft | 11 kts | 122° |
| 2026-04-30 22:38 | 40.65017 | -73.77834 | 19 ft | 12 kts | 118° |
| 2026-04-30 22:39 | 40.64968 | -73.77720 | 19 ft | 17 kts | 121° |
| 2026-04-30 22:39 | 40.64735 | -73.77208 | 19 ft | 22 kts | 121° |
| 2026-04-30 22:40 | 40.64350 | -73.77168 | 19 ft | 20 kts | 210° |
| 2026-04-30 22:41 | 40.64008 | -73.77438 | 19 ft | 18 kts | 210° |
| 2026-04-30 22:41 | 40.63796 | -73.77601 | 19 ft | 17 kts | 210° |
| 2026-04-30 22:42 | 40.63426 | -73.77903 | 20 ft | 14 kts | 235° |
| 2026-04-30 22:43 | 40.63454 | -73.78137 | 20 ft | 13 kts | 300° |
| 2026-04-30 22:43 | 40.63574 | -73.78258 | 20 ft | 13 kts | 18° |
| 2026-04-30 22:44 | 40.63742 | -73.78272 | 22 ft | 12 kts | 353° |
| 2026-04-30 22:45 | 40.63792 | -73.78186 | 20 ft | 0 kts | 83° |